Time;durP1;ratioP1;P1;durP2;ratioP2;P2;SDS_P1;SDS_P2;PMS_P1;PMS_P2;Temp;Humidity;BMP_temperature;BMP_pressure;BME280_temperature;BME280_humidity;BME280_pressure;Samples;Min_cycle;Max_cycle;Signal;HPM_P1;HPM_P2
2021/11/06 00:00:53;;;;;;;36.11;28.49;;;;;;;13.74;70.43;101657.59;473399;110;930518;-84
2021/11/06 00:01:57;;;;;;;36.93;29.63;;;;;;;13.74;70.40;101654.84;472299;110;922938;-84
2021/11/06 00:03:00;;;;;;;35.75;29.42;;;;;;;13.72;70.41;101654.23;472098;110;923041;-83
2021/11/06 00:04:04;;;;;;;41.08;29.45;;;;;;;13.72;70.45;101653.38;473859;110;930590;-82
2021/11/06 00:05:07;;;;;;;41.42;31.00;;;;;;;13.72;70.48;101650.64;471124;110;930586;-82
2021/11/06 00:06:12;;;;;;;33.79;28.18;;;;;;;13.71;70.49;101654.43;471914;110;923197;-82
2021/11/06 00:07:17;;;;;;;35.94;28.47;;;;;;;13.71;70.49;101654.43;473442;110;922397;-83
2021/11/06 00:08:21;;;;;;;33.38;29.09;;;;;;;13.71;70.54;101654.43;475468;110;930296;-83
2021/11/06 00:09:24;;;;;;;37.88;29.66;;;;;;;13.70;70.52;101659.06;460154;114;922332;-82
2021/11/06 00:10:29;;;;;;;37.56;30.12;;;;;;;13.71;70.55;101654.43;458023;114;930198;-82
2021/11/06 00:11:33;;;;;;;34.89;30.46;;;;;;;13.72;70.58;101647.91;455521;113;922899;-82
2021/11/06 00:12:37;;;;;;;44.51;30.56;;;;;;;13.72;70.56;101645.16;456107;114;922530;-82
2021/11/06 00:13:41;;;;;;;39.38;30.16;;;;;;;13.72;70.54;101648.75;459629;113;930314;-82
2021/11/06 00:14:44;;;;;;;39.80;30.97;;;;;;;13.73;70.50;101647.67;457400;114;923168;-83
2021/11/06 00:15:48;;;;;;;38.55;30.45;;;;;;;13.74;70.46;101654.00;458059;115;930817;-83
2021/11/06 00:16:53;;;;;;;39.37;32.16;;;;;;;13.72;70.42;101654.23;457306;113;922553;-82
2021/11/06 00:17:57;;;;;;;42.16;31.19;;;;;;;13.72;70.46;101656.13;456996;113;930698;-83
2021/11/06 00:19:00;;;;;;;36.81;29.74;;;;;;;13.71;70.44;101660.76;456935;114;922748;-82
2021/11/06 00:20:06;;;;;;;40.07;31.69;;;;;;;13.69;70.44;101656.52;458051;113;922545;-83
2021/11/06 00:21:14;;;;;;;43.77;32.47;;;;;;;13.67;70.50;101664.95;456817;114;930502;-83
2021/11/06 00:22:19;;;;;;;42.37;31.72;;;;;;;13.68;70.50;101665.80;457779;113;922754;-83
2021/11/06 00:23:24;;;;;;;38.56;30.46;;;;;;;13.68;70.48;101663.90;457942;114;923016;-84
2021/11/06 00:24:29;;;;;;;46.63;33.31;;;;;;;13.69;70.48;101664.75;449667;117;923315;-83
2021/11/06 00:25:33;;;;;;;38.08;30.86;;;;;;;13.67;70.50;101664.13;450635;115;923266;-83
2021/11/06 00:26:38;;;;;;;37.27;31.50;;;;;;;13.67;70.49;101661.39;456965;113;922812;-84
2021/11/06 00:27:44;;;;;;;44.60;31.24;;;;;;;13.67;70.50;101667.69;457410;115;922972;-82
2021/11/06 00:28:47;;;;;;;41.99;31.24;;;;;;;13.67;70.53;101656.72;458204;113;922688;-82
2021/11/06 00:29:51;;;;;;;39.18;32.19;;;;;;;13.67;70.49;101661.39;458060;113;922999;-83
2021/11/06 00:30:55;;;;;;;41.38;31.09;;;;;;;13.67;70.51;101659.47;458553;115;930224;-82
2021/11/06 00:31:59;;;;;;;35.77;31.01;;;;;;;13.69;70.54;101656.52;456700;113;922585;-83
2021/11/06 00:33:02;;;;;;;40.60;30.51;;;;;;;13.70;70.59;101656.33;453949;114;930713;-84
2021/11/06 00:34:06;;;;;;;34.21;30.16;;;;;;;13.71;70.60;101654.43;462892;111;930310;-83
2021/11/06 00:35:10;;;;;;;35.38;30.91;;;;;;;13.73;70.48;101652.30;462215;112;922844;-84
2021/11/06 00:36:14;;;;;;;34.32;30.02;;;;;;;13.73;70.43;101655.89;451921;114;923075;-83
2021/11/06 00:37:18;;;;;;;39.75;31.05;;;;;;;13.72;70.41;101656.97;459953;114;922996;-83
2021/11/06 00:38:22;;;;;;;36.22;31.02;;;;;;;13.71;70.42;101660.76;461040;112;922755;-83
2021/11/06 00:39:25;;;;;;;42.64;31.62;;;;;;;13.71;70.38;101659.91;459911;114;922512;-84
2021/11/06 00:40:31;;;;;;;41.42;31.59;;;;;;;13.70;70.47;101661.80;461323;113;930388;-84
2021/11/06 00:41:35;;;;;;;39.67;30.43;;;;;;;13.71;70.49;101654.43;459615;113;922963;-83
2021/11/06 00:42:38;;;;;;;43.41;30.94;;;;;;;13.72;70.50;101651.48;458508;112;923213;-83
2021/11/06 00:43:42;;;;;;;37.36;30.65;;;;;;;13.72;70.52;101662.45;459531;114;930272;-83
2021/11/06 00:44:46;;;;;;;38.76;30.64;;;;;;;13.73;70.58;101650.41;459042;114;922683;-82
2021/11/06 00:45:49;;;;;;;37.33;29.83;;;;;;;13.75;70.56;101650.20;458181;114;930570;-83
2021/11/06 00:46:53;;;;;;;40.75;31.67;;;;;;;13.76;70.44;101654.64;456005;113;930648;-83
2021/11/06 00:47:56;;;;;;;43.41;31.26;;;;;;;13.76;70.37;101658.23;452916;116;922565;-82
2021/11/06 00:49:00;;;;;;;41.98;31.02;;;;;;;13.76;70.36;101660.13;459309;114;923438;-83
2021/11/06 00:50:05;;;;;;;41.09;31.25;;;;;;;13.76;70.43;101658.23;458276;113;923089;-82
2021/11/06 00:51:09;;;;;;;44.00;30.57;;;;;;;13.77;70.37;101654.44;448964;115;922694;-83
2021/11/06 00:52:12;;;;;;;44.25;31.36;;;;;;;13.78;70.30;101658.84;450299;115;923050;-83
2021/11/06 00:53:16;;;;;;;43.92;30.82;;;;;;;13.79;70.31;101651.47;459110;115;922590;-83
2021/11/06 00:54:19;;;;;;;39.16;30.04;;;;;;;13.78;70.25;101647.88;459131;115;929972;-83
2021/11/06 00:55:23;;;;;;;40.61;31.59;;;;;;;13.77;70.23;101648.11;459436;115;922198;-83
2021/11/06 00:56:27;;;;;;;43.50;31.66;;;;;;;13.78;70.28;101649.81;458220;114;922105;-83
2021/11/06 00:57:31;;;;;;;41.22;31.01;;;;;;;13.81;70.19;101654.01;460324;114;922153;-83
2021/11/06 00:58:35;;;;;;;38.74;30.77;;;;;;;13.81;70.19;101654.01;457008;114;930465;-83
2021/11/06 00:59:38;;;;;;;34.99;31.17;;;;;;;13.85;70.34;101658.01;458683;113;930369;-82
2021/11/06 01:00:42;;;;;;;43.83;31.48;;;;;;;13.86;70.18;101651.48;462352;112;930733;-82
2021/11/06 01:01:46;;;;;;;44.09;32.26;;;;;;;13.84;70.08;101643.45;458981;114;930396;-82
2021/11/06 01:02:50;;;;;;;42.93;30.17;;;;;;;13.85;70.03;101649.78;464558;112;923060;-83
2021/11/06 01:03:54;;;;;;;40.25;31.06;;;;;;;13.85;70.12;101644.30;463646;112;922865;-83
2021/11/06 01:04:58;;;;;;;39.82;32.01;;;;;;;13.86;70.14;101635.03;454324;115;923122;-83
2021/11/06 01:06:01;;;;;;;38.14;29.54;;;;;;;13.87;70.14;101634.83;459307;114;922516;-82
2021/11/06 01:07:05;;;;;;;37.29;29.77;;;;;;;13.90;70.11;101628.06;460386;113;930563;-83
2021/11/06 01:08:09;;;;;;;35.52;30.06;;;;;;;13.91;70.07;101627.02;458602;113;930167;-83
2021/11/06 01:09:12;;;;;;;37.53;30.79;;;;;;;13.93;70.02;101633.98;459851;114;923010;-83
2021/11/06 01:10:17;;;;;;;39.24;30.71;;;;;;;13.94;69.85;101629.34;456581;114;922599;-83
2021/11/06 01:11:21;;;;;;;43.49;30.31;;;;;;;13.93;69.76;101633.98;464648;110;931215;-83
2021/11/06 01:12:25;;;;;;;40.13;30.92;;;;;;;13.91;69.67;101633.34;472450;110;922669;-83
2021/11/06 01:13:29;;;;;;;39.61;30.57;;;;;;;13.90;69.58;101628.06;472626;110;922468;-83
2021/11/06 01:14:33;;;;;;;37.89;29.89;;;;;;;13.86;69.56;101637.77;471159;110;922517;-82
2021/11/06 01:15:36;;;;;;;41.40;30.52;;;;;;;13.83;69.60;101628.09;470274;110;930547;-82
2021/11/06 01:16:39;;;;;;;41.19;32.14;;;;;;;13.79;69.57;101635.87;474619;110;922627;-82
2021/11/06 01:17:45;;;;;;;46.31;31.46;;;;;;;13.76;69.53;101638.20;472322;110;922940;-82
2021/11/06 01:18:49;;;;;;;48.38;31.65;;;;;;;13.72;69.62;101635.05;471456;110;930392;-83
2021/11/06 01:19:52;;;;;;;39.59;30.72;;;;;;;13.69;69.78;101637.34;472868;110;923134;-83
2021/11/06 01:20:56;;;;;;;41.03;29.89;;;;;;;13.68;69.91;101632.91;474084;110;930257;-82
2021/11/06 01:21:59;;;;;;;39.79;30.93;;;;;;;13.69;69.99;101640.08;464752;112;930256;-83
2021/11/06 01:23:03;;;;;;;50.87;31.72;;;;;;;13.70;69.98;101636.30;466115;110;923224;-82
2021/11/06 01:24:07;;;;;;;50.68;31.05;;;;;;;13.70;70.02;101633.55;471581;110;923357;-83
2021/11/06 01:25:11;;;;;;;43.44;29.76;;;;;;;13.72;70.04;101634.20;471208;110;922621;-84
2021/11/06 01:26:15;;;;;;;42.03;31.07;;;;;;;13.73;70.01;101638.59;473448;110;930526;-83
2021/11/06 01:27:18;;;;;;;34.17;29.66;;;;;;;13.73;69.98;101642.19;472913;110;923183;-84
2021/11/06 01:28:22;;;;;;;39.76;29.38;;;;;;;13.73;69.93;101646.82;472444;110;922561;-84
2021/11/06 01:29:26;;;;;;;45.02;31.94;;;;;;;13.73;69.88;101646.82;472303;110;922566;-84
2021/11/06 01:30:31;;;;;;;40.93;29.53;;;;;;;13.71;69.89;101638.83;472346;110;930439;-84
2021/11/06 01:31:35;;;;;;;43.73;31.46;;;;;;;13.70;69.90;101634.39;470735;110;922554;-83
2021/11/06 01:32:39;;;;;;;43.46;30.81;;;;;;;13.69;70.03;101646.41;472788;109;922980;-84
2021/11/06 01:33:42;;;;;;;42.46;30.44;;;;;;;13.69;70.03;101646.41;471427;110;930688;-83
2021/11/06 01:34:45;;;;;;;37.15;29.77;;;;;;;13.71;69.98;101637.98;470789;110;922636;-83
2021/11/06 01:35:49;;;;;;;38.86;30.69;;;;;;;13.72;69.88;101639.67;470526;110;923424;-83
2021/11/06 01:36:52;;;;;;;46.85;32.24;;;;;;;13.70;69.83;101642.63;471726;110;923161;-84
2021/11/06 01:37:59;;;;;;;41.08;31.56;;;;;;;13.69;69.84;101640.92;466985;112;930483;-84
2021/11/06 01:39:03;;;;;;;44.26;30.67;;;;;;;13.67;69.83;101643.02;467622;110;923524;-83
2021/11/06 01:40:09;;;;;;;43.39;31.37;;;;;;;13.65;69.88;101645.15;472277;110;922325;-84
2021/11/06 01:41:13;;;;;;;40.71;31.97;;;;;;;13.64;69.89;101637.97;472434;110;922467;-82
2021/11/06 01:42:16;;;;;;;41.25;31.96;;;;;;;13.64;70.01;101640.72;463884;112;923305;-83
2021/11/06 01:43:20;;;;;;;47.79;33.53;;;;;;;13.65;70.00;101645.15;463870;111;922749;-83
2021/11/06 01:44:24;;;;;;;43.71;32.02;;;;;;;13.67;70.00;101648.50;474926;110;922542;-83
2021/11/06 01:45:27;;;;;;;45.18;30.54;;;;;;;13.67;69.96;101645.77;472640;110;922465;-83
2021/11/06 01:46:31;;;;;;;50.48;32.39;;;;;;;13.68;69.96;101649.34;476202;110;930164;-82
2021/11/06 01:47:35;;;;;;;42.40;30.94;;;;;;;13.69;69.99;101651.89;472214;110;922840;-83
2021/11/06 01:48:39;;;;;;;46.87;31.28;;;;;;;13.70;69.94;101652.73;472564;110;930245;-82
2021/11/06 01:49:42;;;;;;;44.88;31.21;;;;;;;13.70;69.86;101648.10;470984;109;930413;-83
2021/11/06 01:50:46;;;;;;;43.46;31.62;;;;;;;13.70;69.84;101644.52;472407;110;930383;-83
2021/11/06 01:51:52;;;;;;;40.84;30.26;;;;;;;13.69;69.92;101645.56;472347;110;923102;-82
2021/11/06 01:52:55;;;;;;;38.62;30.68;;;;;;;13.70;69.91;101652.73;471926;110;930386;-83
2021/11/06 01:53:59;;;;;;;43.09;31.38;;;;;;;13.70;69.88;101650.84;471295;110;923701;-82
2021/11/06 01:55:06;;;;;;;39.22;30.95;;;;;;;13.71;69.90;101655.28;472810;110;923061;-82
2021/11/06 01:56:10;;;;;;;37.53;30.89;;;;;;;13.73;69.91;101646.82;471599;110;923328;-82
2021/11/06 01:57:13;;;;;;;38.45;31.04;;;;;;;13.74;69.91;101643.87;472415;110;922950;-83
2021/11/06 01:58:19;;;;;;;36.61;29.13;;;;;;;13.76;69.84;101649.16;474213;110;930602;-83
2021/11/06 01:59:23;;;;;;;48.08;32.82;;;;;;;13.77;69.79;101645.38;471363;110;922773;-83
2021/11/06 02:00:28;;;;;;;48.59;32.87;;;;;;;13.78;69.78;101652.55;473233;110;923149;-82
2021/11/06 02:01:32;;;;;;;45.41;32.11;;;;;;;13.79;69.72;101651.47;470258;110;922465;-82
2021/11/06 02:02:36;;;;;;;49.91;34.31;;;;;;;13.79;69.64;101652.31;473132;110;923427;-81
2021/11/06 02:03:39;;;;;;;44.86;32.86;;;;;;;13.79;69.54;101654.20;473973;110;930439;-81
2021/11/06 02:04:45;;;;;;;50.56;31.96;;;;;;;13.78;69.53;101652.55;474327;110;922559;-83
2021/11/06 02:05:49;;;;;;;50.62;32.59;;;;;;;13.76;69.57;101654.64;472437;110;930638;-82
2021/11/06 02:06:53;;;;;;;50.51;34.02;;;;;;;13.74;69.55;101654.84;472797;110;922443;-83
2021/11/06 02:07:56;;;;;;;44.81;32.82;;;;;;;13.73;69.57;101653.16;471883;110;925037;-81
2021/11/06 02:09:00;;;;;;;48.00;32.67;;;;;;;13.73;69.59;101661.38;473321;110;930322;-82
2021/11/06 02:10:06;;;;;;;43.71;32.02;;;;;;;13.73;69.63;101650.41;472552;110;923091;-81
2021/11/06 02:11:09;;;;;;;47.21;32.28;;;;;;;13.73;69.58;101650.41;474364;110;923049;-84
2021/11/06 02:12:13;;;;;;;42.93;31.18;;;;;;;13.71;69.59;101647.05;473195;110;922440;-82
2021/11/06 02:13:17;;;;;;;53.89;32.66;;;;;;;13.71;69.59;101649.80;472355;110;930524;-83
2021/11/06 02:14:21;;;;;;;46.95;32.19;;;;;;;13.71;69.63;101648.95;472758;110;930581;-82
2021/11/06 02:15:26;;;;;;;48.20;33.30;;;;;;;13.71;69.62;101655.28;472386;110;922417;-82
2021/11/06 02:16:30;;;;;;;43.58;32.51;;;;;;;13.71;69.63;101647.05;472172;110;922446;-84
2021/11/06 02:17:34;;;;;;;45.42;31.28;;;;;;;13.70;69.54;101642.63;472964;110;922569;-84
2021/11/06 02:18:39;;;;;;;46.04;32.55;;;;;;;13.67;69.50;101648.50;471262;109;923043;-84
2021/11/06 02:19:42;;;;;;;51.01;32.72;;;;;;;13.66;69.57;101637.77;473040;110;922905;-83
2021/11/06 02:20:51;;;;;;;54.20;33.89;;;;;;;13.64;69.63;101645.34;473103;110;922485;-82
2021/11/06 02:21:57;;;;;;;45.33;32.82;;;;;;;13.63;69.68;101649.98;471060;110;922510;-81
2021/11/06 02:23:01;;;;;;;48.77;33.01;;;;;;;13.60;69.64;101650.41;471693;110;922558;-82
2021/11/06 02:24:06;;;;;;;47.16;32.90;;;;;;;13.59;69.75;101656.94;475586;110;923078;-82
2021/11/06 02:25:11;;;;;;;54.31;32.68;;;;;;;13.58;69.78;101649.77;471878;110;923203;-82
2021/11/06 02:26:18;;;;;;;44.03;32.73;;;;;;;13.59;69.81;101653.35;471028;110;930578;-83
2021/11/06 02:27:24;;;;;;;48.26;32.76;;;;;;;13.58;69.78;101659.88;464380;112;922280;-81
2021/11/06 02:28:28;;;;;;;43.74;32.15;;;;;;;13.57;69.81;101659.03;468892;111;922123;-82
2021/11/06 02:29:34;;;;;;;48.59;33.66;;;;;;;13.57;69.87;101656.30;476128;110;922601;-82
2021/11/06 02:30:39;;;;;;;56.66;34.43;;;;;;;13.58;69.94;101652.50;475067;110;922215;-80
2021/11/06 02:31:43;;;;;;;51.72;34.30;;;;;;;13.60;69.92;101655.05;473645;110;922257;-82
2021/11/06 02:32:49;;;;;;;55.80;33.96;;;;;;;13.61;69.95;101654.84;473774;110;923079;-82
2021/11/06 02:33:53;;;;;;;50.85;33.93;;;;;;;13.63;70.00;101647.24;472149;110;923091;-82
2021/11/06 02:34:57;;;;;;;49.82;34.85;;;;;;;13.66;69.94;101651.47;473118;110;922935;-83
2021/11/06 02:36:01;;;;;;;55.44;35.26;;;;;;;13.67;69.91;101648.50;472355;110;923200;-80
2021/11/06 02:37:05;;;;;;;52.31;34.11;;;;;;;13.68;69.84;101638.39;471812;110;930473;-81
2021/11/06 02:38:11;;;;;;;50.53;33.33;;;;;;;13.68;69.82;101641.97;471427;110;922524;-81
2021/11/06 02:39:15;;;;;;;50.67;35.89;;;;;;;13.69;69.79;101640.92;472318;110;923131;-82
2021/11/06 02:40:18;;;;;;;54.62;35.05;;;;;;;13.70;69.73;101637.14;473212;110;923520;-82
2021/11/06 02:41:22;;;;;;;53.74;34.03;;;;;;;13.70;69.73;101631.66;472542;110;923072;-82
2021/11/06 02:42:25;;;;;;;51.84;34.64;;;;;;;13.71;69.69;101636.09;473050;109;922539;-81
2021/11/06 02:43:29;;;;;;;50.58;34.18;;;;;;;13.71;69.52;101633.34;472422;110;930466;-81
2021/11/06 02:44:33;;;;;;;48.92;33.59;;;;;;;13.71;69.57;101640.73;471672;110;930534;-82
2021/11/06 02:45:37;;;;;;;52.66;33.52;;;;;;;13.71;69.58;101640.73;471643;110;930743;-81
2021/11/06 02:46:42;;;;;;;43.27;32.63;;;;;;;13.70;69.51;101636.30;471876;110;922640;-82
2021/11/06 02:47:46;;;;;;;50.82;34.66;;;;;;;13.69;69.44;101634.59;472122;110;923104;-82
2021/11/06 02:48:49;;;;;;;48.29;33.18;;;;;;;13.66;69.45;101637.77;471425;110;922338;-82
2021/11/06 02:49:53;;;;;;;47.94;32.50;;;;;;;13.64;69.52;101634.38;471849;110;930399;-80
2021/11/06 02:50:56;;;;;;;40.88;32.39;;;;;;;13.63;69.60;101636.28;472673;110;930589;-82
2021/11/06 02:52:00;;;;;;;39.26;31.57;;;;;;;13.62;69.63;101629.10;475495;110;930655;-83
2021/11/06 02:53:04;;;;;;;49.39;33.76;;;;;;;13.63;69.60;101629.95;471365;110;930273;-82
2021/11/06 02:54:07;;;;;;;47.86;33.30;;;;;;;13.61;69.65;101630.19;473393;110;922612;-80
2021/11/06 02:55:11;;;;;;;43.94;31.62;;;;;;;13.62;69.70;101625.52;473373;110;922798;-83
2021/11/06 02:56:15;;;;;;;48.51;33.19;;;;;;;13.64;69.69;101628.91;474024;110;930398;-82
2021/11/06 02:57:20;;;;;;;51.08;33.39;;;;;;;13.65;69.66;101619.64;472129;110;930492;-82
2021/11/06 02:58:23;;;;;;;59.12;35.97;;;;;;;13.65;69.67;101622.38;467262;112;930714;-84
2021/11/06 02:59:27;;;;;;;58.36;35.95;;;;;;;13.64;69.59;101627.02;457159;112;923090;-83
2021/11/06 03:00:32;;;;;;;56.29;36.00;;;;;;;13.63;69.59;101624.47;465909;110;930748;-82
2021/11/06 03:01:36;;;;;;;60.37;36.91;;;;;;;13.63;69.62;101627.21;470806;110;922641;-81
2021/11/06 03:02:40;;;;;;;66.00;38.35;;;;;;;13.63;69.63;101621.73;471881;110;922571;-81
2021/11/06 03:03:43;;;;;;;62.88;36.55;;;;;;;13.62;69.61;101629.10;471748;110;922900;-84
2021/11/06 03:04:47;;;;;;;64.77;37.35;;;;;;;13.61;69.67;101618.38;472133;110;930350;-83
2021/11/06 03:05:51;;;;;;;63.60;38.21;;;;;;;13.61;69.68;101627.44;471987;110;930611;-82
2021/11/06 03:06:55;;;;;;;59.53;37.89;;;;;;;13.63;69.68;101630.80;471423;110;922522;-81
2021/11/06 03:07:59;;;;;;;57.52;36.21;;;;;;;13.63;69.62;101624.47;472553;110;922507;-82
2021/11/06 03:09:04;;;;;;;61.08;38.24;;;;;;;13.63;69.59;101628.06;472048;110;922902;-83
2021/11/06 03:10:11;;;;;;;65.44;38.85;;;;;;;13.62;69.59;101631.84;464959;111;922620;-81
2021/11/06 03:11:14;;;;;;;62.31;38.19;;;;;;;13.62;69.60;101634.59;466222;111;922668;-81
2021/11/06 03:12:19;;;;;;;61.34;38.41;;;;;;;13.62;69.59;101626.37;472526;110;922473;-81
2021/11/06 03:13:23;;;;;;;60.31;36.61;;;;;;;13.62;69.63;101625.52;473952;110;922568;-80
2021/11/06 03:14:27;;;;;;;66.27;37.75;;;;;;;13.62;69.64;101618.14;474647;110;930050;-81
2021/11/06 03:15:30;;;;;;;62.81;38.36;;;;;;;13.62;69.62;101614.56;473627;110;922603;-80
2021/11/06 03:16:39;;;;;;;62.14;37.72;;;;;;;13.62;69.55;101623.63;473179;110;930219;-82
2021/11/06 03:17:43;;;;;;;54.37;35.57;;;;;;;13.60;69.53;101625.75;474898;110;922703;-81
2021/11/06 03:18:47;;;;;;;53.20;33.28;;;;;;;13.58;69.62;101611.41;472414;110;923383;-81
2021/11/06 03:19:50;;;;;;;52.91;34.53;;;;;;;13.58;69.62;101616.03;472476;110;930566;-82
2021/11/06 03:20:54;;;;;;;47.94;34.20;;;;;;;13.57;69.60;101606.97;472611;110;930302;-84
2021/11/06 03:21:58;;;;;;;47.71;33.88;;;;;;;13.56;69.47;101608.02;473041;110;922572;-80
2021/11/06 03:23:02;;;;;;;45.96;32.52;;;;;;;13.52;69.44;101606.76;472672;110;922784;-81
2021/11/06 03:24:05;;;;;;;52.70;33.01;;;;;;;13.48;69.51;101610.97;472932;110;930327;-81
2021/11/06 03:25:09;;;;;;;52.64;33.65;;;;;;;13.43;69.57;101613.50;472543;110;922995;-81
2021/11/06 03:26:15;;;;;;;47.88;32.86;;;;;;;13.41;69.67;101612.85;458449;113;930463;-81
2021/11/06 03:27:18;;;;;;;46.10;31.77;;;;;;;13.39;69.77;101611.39;458893;114;922641;-80
2021/11/06 03:28:22;;;;;;;49.15;32.20;;;;;;;13.38;69.90;101612.44;456596;114;930379;-82
2021/11/06 03:29:25;;;;;;;50.88;33.75;;;;;;;13.37;69.85;101614.33;450647;116;930455;-82
2021/11/06 03:30:31;;;;;;;46.35;31.43;;;;;;;13.35;69.85;101610.94;457571;114;922934;-80
2021/11/06 03:31:34;;;;;;;52.74;33.57;;;;;;;13.34;69.92;101609.28;462617;112;922770;-82
2021/11/06 03:32:39;;;;;;;45.70;32.09;;;;;;;13.32;69.98;101616.85;463334;113;930693;-82
2021/11/06 03:33:42;;;;;;;46.88;31.72;;;;;;;13.31;69.99;101612.42;462158;114;923016;-81
2021/11/06 03:34:46;;;;;;;45.43;30.91;;;;;;;13.30;70.02;101610.72;461628;113;922680;-83
2021/11/06 03:35:49;;;;;;;45.96;31.47;;;;;;;13.27;70.01;101617.48;462525;111;930416;-83
2021/11/06 03:36:53;;;;;;;49.49;33.13;;;;;;;13.24;70.07;101609.66;454179;113;930426;-83
2021/11/06 03:37:58;;;;;;;45.76;32.03;;;;;;;13.24;70.23;101617.03;453992;115;930342;-84
2021/11/06 03:39:02;;;;;;;46.63;32.31;;;;;;;13.22;70.32;101608.20;460229;113;930460;-83
2021/11/06 03:40:07;;;;;;;47.15;32.02;;;;;;;13.22;70.25;101608.20;459926;113;922950;-82
2021/11/06 03:41:12;;;;;;;43.38;30.97;;;;;;;13.21;70.32;101609.23;458380;113;923032;-82
2021/11/06 03:42:15;;;;;;;45.03;31.67;;;;;;;13.22;70.40;101608.20;459150;113;922554;-82
2021/11/06 03:43:19;;;;;;;41.73;31.96;;;;;;;13.22;70.45;101606.30;459305;114;922646;-82
2021/11/06 03:44:22;;;;;;;45.64;30.68;;;;;;;13.22;70.42;101600.83;459421;113;930451;-80
2021/11/06 03:45:27;;;;;;;45.58;30.81;;;;;;;13.22;70.46;101600.83;459623;113;923426;-82
2021/11/06 03:46:30;;;;;;;44.29;31.92;;;;;;;13.24;70.48;101604.18;457951;114;922546;-83
2021/11/06 03:47:34;;;;;;;45.49;32.43;;;;;;;13.25;70.54;101600.40;459284;112;922432;-82
2021/11/06 03:48:38;;;;;;;43.75;32.31;;;;;;;13.27;70.59;101597.46;459416;113;930427;-81
2021/11/06 03:49:41;;;;;;;44.83;31.68;;;;;;;13.30;70.55;101602.51;458891;113;923309;-82
2021/11/06 03:50:45;;;;;;;51.06;32.34;;;;;;;13.31;70.52;101602.31;459411;114;930417;-84
2021/11/06 03:51:49;;;;;;;56.94;36.29;;;;;;;13.32;70.48;101597.67;458131;114;930551;-84
2021/11/06 03:52:52;;;;;;;64.58;36.19;;;;;;;13.32;70.45;101604.00;460266;114;922766;-85
2021/11/06 03:53:56;;;;;;;68.92;36.51;;;;;;;13.34;70.44;101603.80;459880;113;922686;-84
2021/11/06 03:54:59;;;;;;;63.83;36.93;;;;;;;13.34;70.44;101598.33;459154;114;930454;-85
2021/11/06 03:56:04;;;;;;;67.75;38.63;;;;;;;13.34;70.44;101598.33;458450;114;930756;-82
2021/11/06 03:57:08;;;;;;;73.06;39.11;;;;;;;13.35;70.40;101603.57;459401;114;930531;-84
2021/11/06 03:58:12;;;;;;;69.19;38.61;;;;;;;13.34;70.36;101590.92;453499;116;930573;-83
2021/11/06 03:59:15;;;;;;;68.50;38.59;;;;;;;13.34;70.41;101593.66;461736;112;922467;-82
2021/11/06 04:00:20;;;;;;;66.34;36.92;;;;;;;13.34;70.51;101592.84;453802;115;930478;-84
2021/11/06 04:01:23;;;;;;;70.28;37.34;;;;;;;13.34;70.46;101587.37;473971;109;922804;-83
2021/11/06 04:02:27;;;;;;;70.69;38.78;;;;;;;13.34;70.41;101587.37;476516;110;922166;-84
2021/11/06 04:03:30;;;;;;;65.36;37.69;;;;;;;13.35;70.46;101591.77;475295;107;922006;-82
2021/11/06 04:04:34;;;;;;;68.33;38.51;;;;;;;13.34;70.46;101590.92;476867;110;929792;-82
2021/11/06 04:05:37;;;;;;;74.50;39.28;;;;;;;13.34;70.43;101587.37;474300;110;923184;-82
2021/11/06 04:06:41;;;;;;;70.21;38.94;;;;;;;13.34;70.38;101584.62;474526;110;922222;-83
2021/11/06 04:07:45;;;;;;;74.27;38.16;;;;;;;13.34;70.34;101584.62;473751;110;930099;-83
2021/11/06 04:08:48;;;;;;;71.07;38.59;;;;;;;13.33;70.33;101586.52;473047;110;926492;-82
2021/11/06 04:09:52;;;;;;;66.57;37.59;;;;;;;13.33;70.34;101585.67;471164;110;930410;-82
2021/11/06 04:10:56;;;;;;;64.51;36.43;;;;;;;13.32;70.41;101584.83;465314;112;922721;-83
2021/11/06 04:11:59;;;;;;;70.56;38.29;;;;;;;13.33;70.52;101582.94;462660;110;922713;-83
2021/11/06 04:13:03;;;;;;;62.76;37.25;;;;;;;13.34;70.48;101579.15;471934;110;930562;-82
2021/11/06 04:14:07;;;;;;;68.92;38.68;;;;;;;13.34;70.44;101576.41;471267;110;930327;-82
2021/11/06 04:15:11;;;;;;;60.54;36.61;;;;;;;13.34;70.42;101587.37;473978;110;923574;-83
2021/11/06 04:16:15;;;;;;;68.06;37.76;;;;;;;13.34;70.41;101579.15;472894;110;922966;-83
2021/11/06 04:17:19;;;;;;;70.29;38.62;;;;;;;13.34;70.43;101576.41;471278;110;922896;-81
2021/11/06 04:18:22;;;;;;;71.81;39.45;;;;;;;13.34;70.38;101579.15;471594;110;922547;-83
2021/11/06 04:19:26;;;;;;;69.87;39.26;;;;;;;13.33;70.35;101575.56;472216;110;922532;-83
2021/11/06 04:20:31;;;;;;;65.19;36.82;;;;;;;13.32;70.35;101573.88;471960;110;930589;-83
2021/11/06 04:21:34;;;;;;;70.18;39.51;;;;;;;13.32;70.33;101578.50;471206;110;930795;-81
2021/11/06 04:22:38;;;;;;;63.46;36.33;;;;;;;13.30;70.39;101575.97;471521;110;923006;-81
2021/11/06 04:23:42;;;;;;;70.49;37.85;;;;;;;13.33;70.41;101574.72;471780;110;922707;-83
2021/11/06 04:24:45;;;;;;;63.99;37.21;;;;;;;13.33;70.38;101581.05;474225;110;922525;-83
2021/11/06 04:25:49;;;;;;;60.92;37.39;;;;;;;13.33;70.39;101583.78;473562;110;930376;-84
2021/11/06 04:26:53;;;;;;;66.29;38.11;;;;;;;13.34;70.33;101579.97;473510;110;922980;-81
2021/11/06 04:27:57;;;;;;;64.31;37.41;;;;;;;13.34;70.25;101585.44;472725;110;930368;-83
2021/11/06 04:29:00;;;;;;;62.74;37.15;;;;;;;13.32;70.22;101582.09;471006;110;923226;-81
2021/11/06 04:30:05;;;;;;;61.33;36.44;;;;;;;13.30;70.23;101580.59;474127;110;923198;-84
2021/11/06 04:31:08;;;;;;;63.89;35.41;;;;;;;13.29;70.22;101589.86;474845;110;930484;-81
2021/11/06 04:32:12;;;;;;;56.23;35.04;;;;;;;13.27;70.23;101594.72;474346;110;922550;-83
2021/11/06 04:33:16;;;;;;;65.26;34.79;;;;;;;13.25;70.27;101588.59;472698;110;931098;-84
2021/11/06 04:34:19;;;;;;;54.84;32.64;;;;;;;13.22;70.23;101592.61;472398;110;922706;-82
2021/11/06 04:35:23;;;;;;;54.14;34.58;;;;;;;13.21;70.27;101595.55;472589;110;922597;-82
2021/11/06 04:36:30;;;;;;;56.79;33.93;;;;;;;13.19;70.32;101594.90;471855;110;922622;-82
2021/11/06 04:37:34;;;;;;;53.96;33.08;;;;;;;13.15;70.30;101590.89;471499;110;923037;-82
2021/11/06 04:38:37;;;;;;;55.13;33.05;;;;;;;13.12;70.40;101589.41;473326;110;930458;-83
2021/11/06 04:39:41;;;;;;;51.02;32.31;;;;;;;13.10;70.54;101594.23;474183;110;922515;-82
2021/11/06 04:40:45;;;;;;;51.15;31.23;;;;;;;13.10;70.58;101593.37;473664;110;923002;-82
2021/11/06 04:41:49;;;;;;;60.17;32.49;;;;;;;13.09;70.60;101595.27;471990;110;922692;-83
2021/11/06 04:42:53;;;;;;;50.01;32.44;;;;;;;13.10;70.66;101596.13;472537;110;922607;-83
2021/11/06 04:43:58;;;;;;;55.31;32.95;;;;;;;13.09;70.69;101592.53;471847;110;930510;-83
2021/11/06 04:45:01;;;;;;;50.96;32.33;;;;;;;13.11;70.71;101590.45;471280;110;922543;-82
2021/11/06 04:46:05;;;;;;;50.48;32.49;;;;;;;13.12;70.71;101588.59;471700;110;922618;-83
2021/11/06 04:47:08;;;;;;;53.38;32.78;;;;;;;13.13;70.69;101590.25;473433;110;922549;-83
2021/11/06 04:48:12;;;;;;;55.65;33.45;;;;;;;13.14;70.64;101592.79;473914;110;922441;-82